Huvudsida
METAR-TAF:

METAR-TAF

Flygplatser :

Hemavan Tärnaby Airport

Hemavan, Sverige

latitud: 65-48-22N, longitud: 015-04-58E, höjd: 458 m

Aktuellt väderrapport

Denna rapport gjordes för 44 minuter sedan, klockan 03:20 UTC
Vind 3 kt från syd/sydost
Temperatur -14°C
Fuktighet 92%
Tryck 989 hPa
Sikt 10 km eller mer
fuktdis

METAR: ESUT 190320Z AUTO 15003KT 9999 BR FEW034/// M14/M15 Q0989

Tid: 05:04 (04:04 UTC)


TAF: saknas

Aktuella väderrapporter och prognoser från 4000 flygplatser (METAR- och TAF-rapporter).

De tillgängliga stationerna syns som gula och röda prickar på kartan.

För musen över prickarna för att se namnen på stationerna.

Klicka sedan för att få väderrapporter och prognoser.

För att ändra kartan: Klicka på de gröna knapparna med ett svart kors på för att zooma in; den gröna knappen med ett streck på för att zooma ut; eller på de gröna pilarna för angränsande kartor.


METAR-TAF: